createdAt,value
2019-06-19T00:00:13.376Z,21.20
2019-06-19T00:02:43.254Z,21.20
2019-06-19T00:05:12.757Z,21.20
2019-06-19T00:07:42.782Z,21.10
2019-06-19T00:10:12.573Z,21.10
2019-06-19T00:12:42.613Z,21.10
2019-06-19T00:15:13.237Z,21.10
2019-06-19T00:17:43.139Z,21.10
2019-06-19T00:20:13.260Z,21.10
2019-06-19T00:22:42.967Z,21.00
2019-06-19T00:25:14.127Z,21.10
2019-06-19T00:27:42.244Z,21.10
2019-06-19T00:30:12.815Z,21.00
2019-06-19T00:32:41.834Z,20.90
2019-06-19T00:35:11.446Z,20.90
2019-06-19T00:37:40.763Z,20.90
2019-06-19T00:40:20.626Z,20.80
2019-06-19T00:42:48.373Z,20.90
2019-06-19T00:45:17.098Z,20.80
2019-06-19T00:47:45.699Z,20.80
2019-06-19T00:50:15.475Z,20.90
2019-06-19T00:52:44.227Z,20.90
2019-06-19T00:55:21.200Z,20.90
2019-06-19T00:57:51.507Z,20.80
2019-06-19T01:00:21.648Z,20.80
2019-06-19T01:02:51.292Z,20.80
2019-06-19T01:05:21.279Z,20.70
2019-06-19T01:07:51.380Z,20.60
2019-06-19T01:10:21.164Z,20.60
2019-06-19T01:12:50.722Z,20.60
2019-06-19T01:15:21.617Z,20.50
2019-06-19T01:17:51.916Z,20.40
2019-06-19T01:20:21.393Z,20.40
2019-06-19T01:22:51.759Z,20.40
2019-06-19T01:25:21.770Z,20.40
2019-06-19T01:27:50.961Z,20.30
2019-06-19T01:30:21.168Z,20.20
2019-06-19T01:32:51.463Z,20.20
2019-06-19T01:35:20.683Z,20.10
2019-06-19T01:37:51.476Z,20.10
2019-06-19T01:40:20.971Z,20.00
2019-06-19T01:42:51.871Z,20.00
2019-06-19T01:45:21.733Z,20.00
2019-06-19T01:47:51.766Z,19.90
2019-06-19T01:50:21.728Z,19.90
2019-06-19T01:53:11.200Z,19.90
2019-06-19T01:55:41.880Z,19.80
2019-06-19T01:58:11.339Z,19.80
2019-06-19T02:00:41.151Z,19.80
2019-06-19T02:03:11.226Z,19.80
2019-06-19T02:05:40.738Z,19.80
2019-06-19T02:08:10.992Z,19.80
2019-06-19T02:10:41.016Z,19.70
2019-06-19T02:13:11.248Z,19.70
2019-06-19T02:15:41.739Z,19.70
2019-06-19T02:18:11.371Z,19.60
2019-06-19T02:20:41.514Z,19.60
2019-06-19T02:23:11.379Z,19.60
2019-06-19T02:25:41.814Z,19.60
2019-06-19T02:28:10.759Z,19.60
2019-06-19T02:30:56.289Z,19.70
2019-06-19T02:33:12.721Z,19.70
2019-06-19T02:35:41.379Z,19.70
2019-06-19T02:38:12.699Z,19.70
2019-06-19T02:40:40.797Z,19.70
2019-06-19T02:43:09.631Z,19.70
2019-06-19T02:45:38.332Z,19.70
2019-06-19T02:48:07.332Z,19.70
2019-06-19T02:50:36.204Z,19.60
2019-06-19T02:53:04.788Z,19.50
2019-06-19T02:55:33.317Z,19.50
2019-06-19T02:58:01.968Z,19.50
2019-06-19T03:00:33.590Z,19.50
2019-06-19T03:03:02.182Z,19.50
2019-06-19T03:05:30.720Z,19.40
2019-06-19T03:07:59.230Z,19.50
2019-06-19T03:10:27.878Z,19.40
2019-06-19T03:12:56.545Z,19.40
2019-06-19T03:15:25.059Z,19.40
2019-06-19T03:17:53.589Z,19.40
2019-06-19T03:20:22.121Z,19.40
2019-06-19T03:22:50.670Z,19.40
2019-06-19T03:25:19.344Z,19.40
2019-06-19T03:27:47.959Z,19.40
2019-06-19T03:30:16.819Z,19.40
2019-06-19T03:32:45.371Z,19.40
2019-06-19T03:35:14.304Z,19.40
2019-06-19T03:37:42.991Z,19.40
2019-06-19T03:40:12.042Z,19.40
2019-06-19T03:42:40.586Z,19.40
2019-06-19T03:45:09.364Z,19.40
2019-06-19T03:47:37.895Z,19.50
2019-06-19T03:50:06.771Z,19.50
2019-06-19T03:52:35.425Z,19.50
2019-06-19T03:55:04.890Z,19.50
2019-06-19T03:57:33.420Z,19.50
2019-06-19T04:00:02.237Z,19.50
2019-06-19T04:02:31.060Z,19.40
2019-06-19T04:04:59.798Z,19.40
2019-06-19T04:07:28.401Z,19.40
2019-06-19T04:09:56.996Z,19.40
2019-06-19T04:12:25.543Z,19.40
2019-06-19T04:14:54.101Z,19.50
2019-06-19T04:17:22.674Z,19.60
2019-06-19T04:19:51.247Z,20.20
2019-06-19T04:22:19.803Z,21.20
2019-06-19T04:24:48.490Z,22.10
2019-06-19T04:27:17.063Z,23.00
2019-06-19T04:29:47.256Z,23.70
2019-06-19T04:32:15.801Z,24.30
2019-06-19T04:34:44.367Z,24.60
2019-06-19T04:37:12.904Z,25.20
2019-06-19T04:39:41.478Z,25.80
2019-06-19T04:42:10.012Z,26.40
2019-06-19T04:44:41.317Z,27.00
2019-06-19T04:47:11.447Z,27.30
2019-06-19T04:49:40.246Z,27.80
2019-06-19T04:52:08.845Z,28.10
2019-06-19T04:54:37.801Z,28.40
2019-06-19T04:57:06.319Z,28.80
2019-06-19T04:59:35.801Z,29.10
2019-06-19T05:02:19.940Z,29.20
2019-06-19T05:04:35.106Z,29.20
2019-06-19T05:07:03.774Z,29.60
2019-06-19T05:09:32.479Z,30.10
2019-06-19T05:12:01.083Z,30.50
2019-06-19T05:14:29.626Z,30.90
2019-06-19T05:16:58.156Z,31.10
2019-06-19T05:19:28.110Z,31.30
2019-06-19T05:21:56.708Z,31.60
2019-06-19T05:24:25.239Z,31.50
2019-06-19T05:26:53.831Z,31.50
2019-06-19T05:29:22.453Z,31.50
2019-06-19T05:31:50.985Z,31.60
2019-06-19T05:34:19.505Z,32.10
2019-06-19T05:36:48.058Z,32.60
2019-06-19T05:39:17.159Z,33.30
2019-06-19T05:41:45.698Z,33.90
2019-06-19T05:44:14.215Z,34.20
2019-06-19T05:46:42.755Z,34.20
2019-06-19T05:49:11.277Z,33.90
2019-06-19T05:51:40.208Z,33.60
2019-06-19T05:54:08.747Z,33.40
2019-06-19T05:56:37.333Z,33.70
2019-06-19T05:59:05.977Z,33.60
2019-06-19T06:01:34.540Z,33.60
2019-06-19T06:04:03.143Z,34.00
2019-06-19T06:06:31.699Z,34.40
2019-06-19T06:09:00.321Z,34.90
2019-06-19T06:11:28.855Z,35.20
2019-06-19T06:13:57.385Z,35.20
2019-06-19T06:16:25.992Z,35.10
2019-06-19T06:18:54.520Z,35.10
2019-06-19T06:21:42.816Z,35.30
2019-06-19T06:24:11.389Z,36.00
2019-06-19T06:26:39.939Z,36.50
2019-06-19T06:29:08.465Z,36.80
2019-06-19T06:31:36.996Z,36.60
2019-06-19T06:34:05.631Z,36.40
2019-06-19T06:36:34.241Z,36.40
2019-06-19T06:39:02.832Z,36.80
2019-06-19T06:41:31.663Z,36.60
2019-06-19T06:44:02.144Z,36.80
2019-06-19T06:46:30.600Z,37.50
2019-06-19T06:48:59.294Z,37.80
2019-06-19T06:51:27.828Z,38.00
2019-06-19T06:53:56.363Z,37.80
2019-06-19T06:56:25.012Z,37.90
2019-06-19T06:58:53.541Z,38.40
2019-06-19T07:01:22.075Z,38.50
2019-06-19T07:03:50.754Z,38.50
2019-06-19T07:06:19.535Z,37.90
2019-06-19T07:08:48.138Z,37.30
2019-06-19T07:11:16.693Z,37.90
2019-06-19T07:13:45.599Z,38.60
2019-06-19T07:16:14.129Z,39.30
2019-06-19T07:18:42.658Z,40.20
2019-06-19T07:21:11.257Z,40.50
2019-06-19T07:23:39.813Z,40.90
2019-06-19T07:26:08.352Z,41.20
2019-06-19T07:28:36.944Z,41.40
2019-06-19T07:31:05.481Z,41.00
2019-06-19T07:33:41.287Z,40.80
2019-06-19T07:36:04.427Z,41.10
2019-06-19T07:38:33.012Z,41.50
2019-06-19T07:41:01.581Z,41.90
2019-06-19T07:43:30.100Z,42.30
2019-06-19T07:45:58.951Z,42.20
2019-06-19T07:48:27.525Z,42.10
2019-06-19T07:50:56.063Z,42.60
2019-06-19T07:53:24.735Z,42.60
2019-06-19T07:55:53.267Z,42.80
2019-06-19T07:58:21.859Z,43.00
2019-06-19T08:00:50.402Z,43.60
2019-06-19T08:03:18.927Z,43.40
2019-06-19T08:05:47.716Z,43.30
2019-06-19T08:08:16.248Z,43.40
2019-06-19T08:10:44.792Z,43.50
2019-06-19T08:13:13.761Z,43.50
2019-06-19T08:15:42.655Z,43.60
2019-06-19T08:18:11.176Z,44.00
2019-06-19T08:20:39.778Z,43.80
2019-06-19T08:23:08.406Z,44.00
2019-06-19T08:25:37.262Z,43.70
2019-06-19T08:28:06.048Z,43.40
2019-06-19T08:30:34.716Z,43.00
2019-06-19T08:33:03.277Z,43.00
2019-06-19T08:35:31.975Z,42.70
2019-06-19T08:38:00.582Z,42.20
2019-06-19T08:40:29.098Z,41.10
2019-06-19T08:42:57.646Z,40.90
2019-06-19T08:45:26.304Z,40.70
2019-06-19T08:47:54.882Z,40.60
2019-06-19T08:50:23.414Z,40.40
2019-06-19T08:52:51.948Z,40.40
2019-06-19T08:55:20.505Z,40.70
2019-06-19T08:57:49.163Z,40.50
2019-06-19T09:00:23.591Z,40.70
2019-06-19T09:02:52.103Z,41.20
2019-06-19T09:05:20.720Z,41.60
2019-06-19T09:07:49.265Z,41.40
2019-06-19T09:10:33.876Z,41.30
2019-06-19T09:13:02.424Z,40.90
2019-06-19T09:15:31.122Z,40.90
2019-06-19T09:17:59.729Z,41.10
2019-06-19T09:20:28.259Z,41.40
2019-06-19T09:22:56.808Z,41.90
2019-06-19T09:25:25.374Z,41.20
2019-06-19T09:27:53.980Z,41.30
2019-06-19T09:30:25.579Z,41.40
2019-06-19T09:32:54.381Z,41.40
2019-06-19T09:35:22.926Z,41.80
2019-06-19T09:37:51.475Z,42.30
2019-06-19T09:40:20.167Z,42.10
2019-06-19T09:42:48.779Z,41.70
2019-06-19T09:45:17.675Z,41.70
2019-06-19T09:47:46.235Z,41.60
2019-06-19T09:50:15.016Z,41.60
2019-06-19T09:52:44.087Z,41.10
2019-06-19T09:55:12.754Z,39.10
2019-06-19T09:57:41.396Z,37.70
2019-06-19T10:00:11.011Z,36.60
2019-06-19T10:02:39.576Z,35.40
2019-06-19T10:05:08.517Z,34.90
2019-06-19T10:07:37.250Z,34.30
2019-06-19T10:10:08.218Z,33.70
2019-06-19T10:12:36.770Z,33.10
2019-06-19T10:15:08.931Z,32.90
2019-06-19T10:17:37.534Z,33.20
2019-06-19T10:20:06.529Z,33.00
2019-06-19T10:22:35.280Z,33.00
2019-06-19T10:25:05.653Z,33.30
2019-06-19T10:27:34.342Z,33.40
2019-06-19T10:30:03.601Z,33.00
2019-06-19T10:32:32.631Z,33.40
2019-06-19T10:35:01.920Z,34.50
2019-06-19T10:37:30.543Z,35.00
2019-06-19T10:39:59.094Z,34.80
2019-06-19T10:42:27.622Z,34.30
2019-06-19T10:44:56.211Z,33.10
2019-06-19T10:47:24.843Z,32.20
2019-06-19T10:49:53.367Z,32.00
2019-06-19T10:52:21.913Z,32.60
2019-06-19T10:54:50.447Z,33.60
2019-06-19T10:57:19.031Z,34.30
2019-06-19T10:59:47.570Z,35.10
2019-06-19T11:02:16.338Z,35.40
2019-06-19T11:04:44.912Z,35.80
2019-06-19T11:07:13.594Z,34.80
2019-06-19T11:09:42.186Z,34.30
2019-06-19T11:12:10.790Z,34.00
2019-06-19T11:14:39.336Z,33.90
2019-06-19T11:17:07.956Z,33.90
2019-06-19T11:19:36.696Z,34.20
2019-06-19T11:22:05.389Z,34.10
2019-06-19T11:24:33.971Z,33.50
2019-06-19T11:27:02.553Z,33.00
2019-06-19T11:29:31.208Z,32.70
2019-06-19T11:31:59.734Z,32.40
2019-06-19T11:34:28.243Z,32.00
2019-06-19T11:36:56.787Z,32.20
2019-06-19T11:39:25.376Z,32.20
2019-06-19T11:41:53.924Z,32.10
2019-06-19T11:44:22.448Z,32.00
2019-06-19T11:46:51.031Z,31.70
2019-06-19T11:49:19.593Z,31.60
2019-06-19T11:51:48.102Z,31.80
2019-06-19T11:54:16.703Z,31.90
2019-06-19T11:56:45.294Z,31.80
2019-06-19T11:59:13.907Z,31.60
2019-06-19T12:01:42.487Z,31.60
2019-06-19T12:04:11.142Z,31.20
2019-06-19T12:06:40.159Z,31.00
2019-06-19T12:09:09.254Z,30.60
2019-06-19T12:11:38.135Z,30.60
2019-06-19T12:14:17.984Z,30.40
2019-06-19T12:16:37.187Z,30.40
2019-06-19T12:19:05.919Z,30.40
2019-06-19T12:21:35.845Z,30.10
2019-06-19T12:24:04.792Z,30.10
2019-06-19T12:26:33.419Z,30.00
2019-06-19T12:29:02.214Z,29.90
2019-06-19T12:31:30.914Z,30.00
2019-06-19T12:33:59.447Z,30.20
2019-06-19T12:36:30.233Z,30.40
2019-06-19T12:38:58.391Z,30.50
2019-06-19T12:41:27.034Z,30.50
2019-06-19T12:43:55.568Z,30.10
2019-06-19T12:46:24.125Z,29.70
2019-06-19T12:48:52.729Z,29.40
2019-06-19T12:51:21.318Z,29.20
2019-06-19T12:53:49.855Z,29.10
2019-06-19T12:56:18.456Z,29.10
2019-06-19T12:58:47.126Z,29.30
2019-06-19T13:01:15.840Z,29.70
2019-06-19T13:03:44.545Z,30.30
2019-06-19T13:06:13.126Z,30.60
2019-06-19T13:08:41.820Z,30.70
2019-06-19T13:11:10.420Z,30.60
2019-06-19T13:13:39.027Z,30.30
2019-06-19T13:16:10.264Z,30.30
2019-06-19T13:18:37.851Z,30.30
2019-06-19T13:21:06.483Z,30.70
2019-06-19T13:23:35.123Z,30.60
2019-06-19T13:26:03.894Z,30.30
2019-06-19T13:28:32.426Z,30.20
2019-06-19T13:31:01.167Z,30.30
2019-06-19T13:33:29.757Z,30.60
2019-06-19T13:35:58.371Z,30.70
2019-06-19T13:38:26.996Z,30.80
2019-06-19T13:40:55.638Z,30.80
2019-06-19T13:43:24.254Z,30.70
2019-06-19T13:45:52.796Z,30.90
2019-06-19T13:48:21.337Z,30.70
2019-06-19T13:50:49.940Z,30.50
2019-06-19T13:53:18.476Z,30.30
2019-06-19T13:55:47.018Z,30.30
2019-06-19T13:58:15.566Z,30.30
2019-06-19T14:00:44.216Z,30.40
2019-06-19T14:03:13.026Z,30.30
2019-06-19T14:05:42.441Z,30.20
2019-06-19T14:08:11.114Z,30.10
2019-06-19T14:10:39.965Z,30.00
2019-06-19T14:13:08.504Z,29.90
2019-06-19T14:15:37.112Z,29.70
2019-06-19T14:18:05.718Z,29.60
2019-06-19T14:20:34.244Z,29.70
2019-06-19T14:23:02.859Z,30.00
2019-06-19T14:25:31.480Z,30.10
2019-06-19T14:28:00.101Z,30.20
2019-06-19T14:30:28.934Z,30.40
2019-06-19T14:32:57.553Z,30.20
2019-06-19T14:35:26.077Z,30.10
2019-06-19T14:37:54.618Z,29.90
2019-06-19T14:40:23.268Z,29.70
2019-06-19T14:42:51.787Z,29.50
2019-06-19T14:45:20.463Z,29.30
2019-06-19T14:47:48.987Z,29.30
2019-06-19T14:50:17.975Z,29.30
2019-06-19T14:52:46.537Z,29.30
2019-06-19T14:55:15.717Z,29.60
2019-06-19T14:57:44.475Z,29.90
2019-06-19T15:00:13.956Z,30.30
2019-06-19T15:02:42.519Z,30.50
2019-06-19T15:05:11.363Z,30.30
2019-06-19T15:07:54.841Z,30.20
2019-06-19T15:10:10.681Z,29.90
2019-06-19T15:12:39.218Z,29.60
2019-06-19T15:15:08.298Z,29.40
2019-06-19T15:17:36.923Z,29.30
2019-06-19T15:20:10.231Z,29.40
2019-06-19T15:22:38.859Z,29.60
2019-06-19T15:25:08.827Z,29.90
2019-06-19T15:27:37.452Z,30.10
2019-06-19T15:30:07.610Z,30.10
2019-06-19T15:32:36.252Z,29.90
2019-06-19T15:35:06.839Z,29.70
2019-06-19T15:37:35.455Z,29.50
2019-06-19T15:40:05.797Z,29.40
2019-06-19T15:42:34.597Z,29.40
2019-06-19T15:45:05.178Z,29.50
2019-06-19T15:47:33.719Z,29.70
2019-06-19T15:50:02.276Z,30.00
2019-06-19T15:52:30.804Z,30.10
2019-06-19T15:54:59.442Z,30.20
2019-06-19T15:57:28.072Z,30.10
2019-06-19T15:59:56.619Z,30.00
2019-06-19T16:02:25.239Z,30.20
2019-06-19T16:04:53.875Z,30.10
2019-06-19T16:07:22.420Z,30.20
2019-06-19T16:09:51.051Z,30.20
2019-06-19T16:12:19.599Z,30.20
2019-06-19T16:14:48.487Z,30.10
2019-06-19T16:17:17.123Z,30.10
2019-06-19T16:19:45.643Z,29.90
2019-06-19T16:22:14.171Z,29.80
2019-06-19T16:24:42.697Z,29.80
2019-06-19T16:27:11.217Z,29.70
2019-06-19T16:29:39.823Z,29.70
2019-06-19T16:32:11.483Z,29.70
2019-06-19T16:34:38.970Z,29.60
2019-06-19T16:37:07.585Z,29.50
2019-06-19T16:39:36.195Z,29.50
2019-06-19T16:42:04.872Z,29.40
2019-06-19T16:44:33.409Z,29.40
2019-06-19T16:47:02.026Z,29.40
2019-06-19T16:49:30.768Z,29.30
2019-06-19T16:52:01.999Z,29.30
2019-06-19T16:54:29.879Z,29.20
2019-06-19T16:56:58.401Z,29.30
2019-06-19T16:59:26.947Z,29.20
2019-06-19T17:01:55.536Z,29.20
2019-06-19T17:04:24.087Z,29.10
2019-06-19T17:06:52.717Z,28.90
2019-06-19T17:09:21.301Z,28.90
2019-06-19T17:11:49.927Z,28.80
2019-06-19T17:14:18.621Z,28.90
2019-06-19T17:16:47.441Z,28.80
2019-06-19T17:19:15.979Z,28.80
2019-06-19T17:21:51.365Z,28.70
2019-06-19T17:24:15.206Z,28.60
2019-06-19T17:26:43.807Z,28.50
2019-06-19T17:29:12.410Z,28.40
2019-06-19T17:31:41.885Z,28.30
2019-06-19T17:34:10.503Z,28.20
2019-06-19T17:36:39.300Z,28.00
2019-06-19T17:39:21.264Z,27.80
2019-06-19T17:41:38.729Z,27.80
2019-06-19T17:44:07.543Z,27.80
2019-06-19T17:46:36.066Z,27.70
2019-06-19T17:49:04.904Z,27.70
2019-06-19T17:51:33.542Z,27.70
2019-06-19T17:54:02.168Z,27.70
2019-06-19T17:56:31.052Z,27.60
2019-06-19T17:58:59.671Z,27.60
2019-06-19T18:01:28.190Z,27.40
2019-06-19T18:03:58.403Z,27.10
2019-06-19T18:06:27.200Z,26.90
2019-06-19T18:08:55.766Z,26.50
2019-06-19T18:11:24.300Z,26.10
2019-06-19T18:13:52.932Z,25.90
2019-06-19T18:16:35.734Z,25.60
2019-06-19T18:18:51.724Z,25.60
2019-06-19T18:21:20.368Z,25.40
2019-06-19T18:23:48.895Z,25.30
2019-06-19T18:26:17.538Z,25.10
2019-06-19T18:28:46.057Z,25.00
2019-06-19T18:31:14.715Z,24.80
2019-06-19T18:33:43.359Z,24.70
2019-06-19T18:36:11.934Z,24.70
2019-06-19T18:38:40.497Z,24.60
2019-06-19T18:41:09.040Z,24.40
2019-06-19T18:43:37.591Z,24.00
2019-06-19T18:46:06.347Z,23.60
2019-06-19T18:48:34.990Z,23.30
2019-06-19T18:51:03.517Z,22.60
2019-06-19T18:53:32.133Z,21.30
2019-06-19T18:56:00.751Z,19.90
2019-06-19T18:58:29.380Z,19.10
2019-06-19T19:00:57.929Z,18.90
2019-06-19T19:03:26.724Z,18.70
2019-06-19T19:05:55.377Z,18.70
2019-06-19T19:08:23.919Z,18.70
2019-06-19T19:10:52.625Z,18.90
2019-06-19T19:13:21.172Z,19.00
2019-06-19T19:15:49.826Z,19.10
2019-06-19T19:18:18.483Z,19.30
2019-06-19T19:20:47.220Z,19.30
2019-06-19T19:23:15.809Z,19.30
2019-06-19T19:25:44.436Z,19.20
2019-06-19T19:28:12.968Z,19.20
2019-06-19T19:30:41.590Z,19.20
2019-06-19T19:33:10.178Z,19.30
2019-06-19T19:35:38.736Z,19.40
2019-06-19T19:38:07.383Z,19.60
2019-06-19T19:40:36.018Z,19.70
2019-06-19T19:43:04.657Z,19.80
2019-06-19T19:45:33.192Z,19.90
2019-06-19T19:48:01.813Z,19.90
2019-06-19T19:50:30.419Z,19.80
2019-06-19T19:53:05.288Z,19.80
2019-06-19T19:55:29.419Z,19.70
2019-06-19T19:57:58.079Z,19.60
2019-06-19T20:00:41.387Z,19.50
2019-06-19T20:03:10.090Z,19.50
2019-06-19T20:05:38.909Z,19.50
2019-06-19T20:08:07.722Z,19.50
2019-06-19T20:10:45.783Z,19.40
2019-06-19T20:13:06.735Z,19.40
2019-06-19T20:15:35.251Z,19.30
2019-06-19T20:18:04.001Z,19.30
2019-06-19T20:20:32.656Z,19.30
2019-06-19T20:23:01.185Z,19.40
2019-06-19T20:25:29.749Z,19.40
2019-06-19T20:27:58.439Z,19.40
2019-06-19T20:30:27.097Z,19.40
2019-06-19T20:32:55.670Z,19.30
2019-06-19T20:35:24.329Z,19.30
2019-06-19T20:37:52.881Z,19.20
2019-06-19T20:40:22.743Z,19.10
2019-06-19T20:42:53.307Z,19.20
2019-06-19T20:45:21.850Z,19.20
2019-06-19T20:47:50.435Z,19.10
2019-06-19T20:50:19.270Z,19.10
2019-06-19T20:52:55.874Z,19.00
2019-06-19T20:55:18.312Z,19.00
2019-06-19T20:57:46.945Z,19.00
2019-06-19T21:00:16.911Z,19.00
2019-06-19T21:02:45.634Z,18.90
2019-06-19T21:05:14.615Z,18.90
2019-06-19T21:07:43.181Z,18.80
2019-06-19T21:10:11.907Z,18.80
2019-06-19T21:12:40.603Z,18.80
2019-06-19T21:15:09.869Z,18.80
2019-06-19T21:17:38.622Z,18.80
2019-06-19T21:20:08.928Z,18.80
2019-06-19T21:22:37.569Z,18.80
2019-06-19T21:25:08.340Z,18.80
2019-06-19T21:27:37.075Z,18.80
2019-06-19T21:30:07.558Z,18.70
2019-06-19T21:32:36.511Z,18.70
2019-06-19T21:35:08.210Z,18.70
2019-06-19T21:37:37.020Z,18.70
2019-06-19T21:40:09.112Z,18.60
2019-06-19T21:42:38.277Z,18.50
2019-06-19T21:45:08.530Z,18.50
2019-06-19T21:47:37.246Z,18.40
2019-06-19T21:50:06.776Z,18.30
2019-06-19T21:52:35.404Z,18.30
2019-06-19T21:55:05.889Z,18.20
2019-06-19T21:57:34.421Z,18.20
2019-06-19T22:00:04.688Z,18.20
2019-06-19T22:02:33.332Z,18.30
2019-06-19T22:05:02.037Z,18.20
2019-06-19T22:07:30.736Z,18.20
2019-06-19T22:09:59.384Z,18.20
2019-06-19T22:12:27.956Z,18.20
2019-06-19T22:14:56.606Z,18.20
2019-06-19T22:17:25.168Z,18.30
2019-06-19T22:19:54.455Z,18.40
2019-06-19T22:22:23.088Z,18.40
2019-06-19T22:24:51.764Z,18.40
2019-06-19T22:27:20.440Z,18.40
2019-06-19T22:29:48.997Z,18.50
2019-06-19T22:32:17.677Z,18.60
2019-06-19T22:34:46.266Z,18.60
2019-06-19T22:37:35.676Z,18.50
2019-06-19T22:40:06.421Z,18.40
2019-06-19T22:42:35.092Z,18.40
2019-06-19T22:45:05.309Z,18.40
2019-06-19T22:47:33.830Z,18.40
2019-06-19T22:50:02.520Z,18.40
2019-06-19T22:52:31.233Z,18.40
2019-06-19T22:54:59.800Z,18.40
2019-06-19T22:57:28.346Z,18.40
2019-06-19T22:59:57.045Z,18.30
2019-06-19T23:02:30.545Z,18.30
2019-06-19T23:04:59.221Z,18.30
2019-06-19T23:07:27.845Z,18.20
2019-06-19T23:09:56.550Z,18.20
2019-06-19T23:12:27.937Z,18.10
2019-06-19T23:14:55.739Z,18.10
2019-06-19T23:17:24.471Z,18.10
2019-06-19T23:19:53.088Z,18.00
2019-06-19T23:22:21.823Z,18.00
2019-06-19T23:24:50.335Z,18.00
2019-06-19T23:27:18.916Z,18.00
2019-06-19T23:29:47.615Z,17.90
2019-06-19T23:32:16.172Z,17.90
2019-06-19T23:34:44.830Z,17.90
2019-06-19T23:37:13.427Z,17.90
2019-06-19T23:39:41.938Z,18.00
2019-06-19T23:42:10.477Z,18.10
2019-06-19T23:44:39.040Z,18.10
2019-06-19T23:47:07.576Z,18.00
2019-06-19T23:49:36.213Z,18.00
2019-06-19T23:52:04.840Z,18.00
2019-06-19T23:54:33.368Z,18.00
2019-06-19T23:57:01.920Z,17.90
2019-06-19T23:59:30.500Z,17.90
